Time;durP1;ratioP1;P1;durP2;ratioP2;P2;SDS_P1;SDS_P2;PMS_P1;PMS_P2;Temp;Humidity;BMP_temperature;BMP_pressure;BME280_temperature;BME280_humidity;BME280_pressure;Samples;Min_cycle;Max_cycle;Signal;HPM_P1;HPM_P2
2023/01/20 00:02:19;;;;;;;3.77;2.90;;;-2.40;99.90;;;;;;5048729;28;20537;-46
2023/01/20 00:04:48;;;;;;;3.47;2.60;;;-2.50;99.90;;;;;;5049308;28;20501;-46
2023/01/20 00:07:15;;;;;;;3.87;2.90;;;-2.40;99.90;;;;;;5049612;28;20943;-47
2023/01/20 00:09:43;;;;;;;5.33;2.77;;;-2.50;99.90;;;;;;5049949;28;20505;-46
2023/01/20 00:12:10;;;;;;;2.70;2.30;;;-2.70;99.90;;;;;;5031812;28;20493;-46
2023/01/20 00:14:37;;;;;;;3.60;2.87;;;-3.00;99.90;;;;;;5050435;28;20584;-45
2023/01/20 00:17:04;;;;;;;2.70;2.43;;;-3.10;99.90;;;;;;5052006;28;20486;-47
2023/01/20 00:19:30;;;;;;;3.47;3.17;;;-3.30;99.90;;;;;;5052539;28;20526;-46
2023/01/20 00:21:57;;;;;;;3.60;2.70;;;-3.20;99.90;;;;;;5052809;28;20871;-48
2023/01/20 00:24:24;;;;;;;3.88;2.67;;;-3.20;99.90;;;;;;5051751;28;20457;-46
2023/01/20 00:26:53;;;;;;;2.63;2.40;;;-3.20;99.90;;;;;;5054036;28;20289;-45
2023/01/20 00:29:19;;;;;;;3.60;1.97;;;-3.20;99.90;;;;;;5053883;28;20564;-45
2023/01/20 00:31:46;;;;;;;3.10;2.50;;;-3.20;99.90;;;;;;5053582;28;20521;-45
2023/01/20 00:34:13;;;;;;;3.67;2.43;;;-3.10;99.90;;;;;;5060577;28;20492;-46
2023/01/20 00:36:40;;;;;;;3.17;2.93;;;-3.00;99.90;;;;;;5073295;28;20536;-46
2023/01/20 00:39:07;;;;;;;2.70;2.50;;;-3.10;99.90;;;;;;5052606;28;20475;-46
2023/01/20 00:41:34;;;;;;;5.03;2.90;;;-3.10;99.90;;;;;;5051797;28;20969;-48
2023/01/20 00:44:02;;;;;;;4.37;2.40;;;-3.20;99.90;;;;;;5051006;28;20494;-48
2023/01/20 00:46:29;;;;;;;5.40;2.73;;;-3.10;99.90;;;;;;5052193;28;20953;-48
2023/01/20 00:48:56;;;;;;;2.90;2.57;;;-3.00;99.90;;;;;;5051491;28;20552;-46
2023/01/20 00:51:23;;;;;;;4.50;3.40;;;-3.00;99.90;;;;;;5051359;28;20523;-45
2023/01/20 00:53:50;;;;;;;3.53;3.20;;;-3.00;99.90;;;;;;5052404;28;20555;-47
2023/01/20 00:56:17;;;;;;;3.20;2.20;;;-3.00;99.90;;;;;;5052842;28;20496;-46
2023/01/20 00:58:44;;;;;;;2.80;2.13;;;-3.20;99.90;;;;;;5053168;28;20529;-46
2023/01/20 01:01:12;;;;;;;2.77;2.17;;;-3.30;99.90;;;;;;5050886;28;20534;-46
2023/01/20 01:03:39;;;;;;;2.50;2.30;;;-3.30;99.90;;;;;;5051702;28;20559;-46
2023/01/20 01:06:09;;;;;;;4.53;2.27;;;-3.10;99.90;;;;;;5052680;28;20527;-48
2023/01/20 01:08:36;;;;;;;2.57;2.17;;;-3.10;99.90;;;;;;5051489;28;20552;-48
2023/01/20 01:11:03;;;;;;;2.53;2.10;;;-3.30;99.90;;;;;;5052966;28;20525;-46
2023/01/20 01:13:31;;;;;;;2.70;2.30;;;-3.20;99.90;;;;;;5051974;28;20205;-45
2023/01/20 01:15:58;;;;;;;4.57;3.07;;;-3.20;99.90;;;;;;5052074;28;20451;-45
2023/01/20 01:18:26;;;;;;;2.87;2.60;;;-3.30;99.90;;;;;;5052812;28;20522;-46
2023/01/20 01:20:53;;;;;;;3.40;2.67;;;-3.10;99.90;;;;;;5053069;28;21036;-46
2023/01/20 01:23:20;;;;;;;2.87;2.33;;;-2.90;99.90;;;;;;5057199;28;20520;-46
2023/01/20 01:25:46;;;;;;;3.33;2.00;;;-2.70;99.90;;;;;;5052344;28;20529;-47
2023/01/20 01:28:13;;;;;;;4.67;2.63;;;-2.70;99.90;;;;;;5052556;28;20569;-48
2023/01/20 01:30:40;;;;;;;2.77;2.30;;;-2.70;99.90;;;;;;5052005;28;21100;-46
2023/01/20 01:33:07;;;;;;;5.10;2.73;;;-2.60;99.90;;;;;;5066183;28;20858;-46
2023/01/20 01:35:35;;;;;;;3.50;2.23;;;-2.40;99.90;;;;;;5052262;28;20544;-49
2023/01/20 01:38:02;;;;;;;2.77;2.50;;;-2.40;99.90;;;;;;5052476;28;20529;-48
2023/01/20 01:40:29;;;;;;;2.13;1.93;;;-2.30;99.90;;;;;;5052121;28;20453;-46
2023/01/20 01:42:56;;;;;;;3.40;2.47;;;-2.30;99.90;;;;;;5066913;28;20524;-44
2023/01/20 01:45:27;;;;;;;2.83;2.30;;;-2.20;99.90;;;;;;5052060;28;21041;-46
2023/01/20 01:48:05;;;;;;;2.33;2.13;;;-2.30;99.90;;;;;;5051887;28;20545;-46
2023/01/20 01:50:39;;;;;;;3.07;2.77;;;-2.40;99.90;;;;;;5051930;28;20450;-45
2023/01/20 01:53:07;;;;;;;5.60;3.00;;;-2.20;99.90;;;;;;5051394;28;20528;-46
2023/01/20 01:55:38;;;;;;;4.67;3.10;;;-2.30;99.90;;;;;;5050912;28;20518;-46
2023/01/20 01:58:07;;;;;;;5.83;3.57;;;-2.40;99.90;;;;;;5051265;28;20532;-46
2023/01/20 02:00:34;;;;;;;4.67;4.17;;;-2.40;99.90;;;;;;5048606;28;20528;-47
2023/01/20 02:03:01;;;;;;;2.73;2.53;;;-2.40;99.90;;;;;;5049632;28;20529;-46
2023/01/20 02:05:29;;;;;;;5.53;2.90;;;-2.50;99.90;;;;;;5050137;28;20912;-45
2023/01/20 02:07:58;;;;;;;3.23;2.83;;;-2.50;99.90;;;;;;5050876;28;20523;-48
2023/01/20 02:10:25;;;;;;;2.50;2.30;;;-2.40;99.90;;;;;;5050605;28;20492;-46
2023/01/20 02:12:53;;;;;;;3.60;2.77;;;-2.40;99.90;;;;;;5050503;28;20524;-44
2023/01/20 02:15:26;;;;;;;3.60;2.90;;;-2.40;99.90;;;;;;5050896;28;20554;-47
2023/01/20 02:18:10;;;;;;;3.07;2.80;;;-2.40;99.90;;;;;;5050557;28;20523;-48
2023/01/20 02:21:09;;;;;;;3.80;3.00;;;-2.30;99.90;;;;;;5050971;28;20452;-47
2023/01/20 02:23:58;;;;;;;4.80;3.27;;;-2.40;99.90;;;;;;5038693;28;21002;-45
2023/01/20 02:26:48;;;;;;;3.90;2.87;;;-2.40;99.90;;;;;;5050773;28;20528;-46
2023/01/20 02:29:45;;;;;;;2.77;2.30;;;-2.50;99.90;;;;;;5039503;28;20580;-48
2023/01/20 02:32:20;;;;;;;4.83;2.10;;;-2.40;99.90;;;;;;5050413;28;20973;-46
2023/01/20 02:34:54;;;;;;;2.70;2.50;;;-2.50;99.90;;;;;;5048731;28;21049;-48
2023/01/20 02:37:25;;;;;;;2.80;2.23;;;-2.40;99.90;;;;;;5049965;28;20475;-46
2023/01/20 02:40:04;;;;;;;2.60;2.17;;;-2.40;99.90;;;;;;5049954;28;20510;-48
2023/01/20 02:42:38;;;;;;;2.60;2.40;;;-2.40;99.90;;;;;;5049758;28;20441;-45
2023/01/20 02:45:11;;;;;;;3.77;2.60;;;-2.50;99.90;;;;;;5049033;28;20515;-46
2023/01/20 02:47:45;;;;;;;5.73;3.07;;;-2.50;99.90;;;;;;5049838;28;20970;-45
2023/01/20 02:50:15;;;;;;;2.57;2.23;;;-2.50;99.90;;;;;;5050124;28;20473;-45
2023/01/20 02:52:45;;;;;;;3.20;2.40;;;-2.50;99.90;;;;;;5051065;28;20474;-46
2023/01/20 02:55:22;;;;;;;3.17;2.47;;;-2.60;99.90;;;;;;5049803;28;20548;-46
2023/01/20 02:57:53;;;;;;;2.80;2.40;;;-2.60;99.90;;;;;;5050744;28;20520;-45
2023/01/20 03:00:25;;;;;;;5.67;3.20;;;-2.50;99.90;;;;;;5048726;28;20885;-45
2023/01/20 03:02:57;;;;;;;8.40;4.10;;;-2.70;99.90;;;;;;5037310;28;20442;-42
2023/01/20 03:05:28;;;;;;;3.33;2.33;;;-2.80;99.90;;;;;;5050339;28;20564;-46
2023/01/20 03:07:57;;;;;;;2.97;2.47;;;-2.60;99.90;;;;;;5050696;28;20478;-48
2023/01/20 03:10:26;;;;;;;3.93;2.67;;;-2.60;99.90;;;;;;5050360;28;20572;-46
2023/01/20 03:12:57;;;;;;;2.43;2.10;;;-2.80;99.90;;;;;;5049726;28;20529;-44
2023/01/20 03:15:30;;;;;;;3.80;2.70;;;-2.80;99.90;;;;;;5050586;28;20500;-47
2023/01/20 03:17:59;;;;;;;3.73;2.50;;;-3.00;99.90;;;;;;5049969;28;20476;-47
2023/01/20 03:20:25;;;;;;;3.60;3.07;;;-3.00;99.90;;;;;;5050234;28;20527;-47
2023/01/20 03:22:52;;;;;;;3.13;2.43;;;-2.90;99.90;;;;;;5049904;28;20534;-46
2023/01/20 03:25:20;;;;;;;3.20;2.90;;;-2.70;99.90;;;;;;5049992;28;20547;-46
2023/01/20 03:27:47;;;;;;;4.13;2.80;;;-3.40;99.90;;;;;;5050543;28;20534;-46
2023/01/20 03:30:16;;;;;;;2.93;2.53;;;-3.20;99.90;;;;;;5050102;28;20508;-45
2023/01/20 03:32:44;;;;;;;4.63;2.70;;;-3.00;99.90;;;;;;5050310;28;20469;-47
2023/01/20 03:35:14;;;;;;;3.17;2.97;;;-3.00;99.90;;;;;;5048920;28;20504;-46
2023/01/20 03:37:41;;;;;;;4.90;3.17;;;-3.00;99.90;;;;;;5050344;28;20542;-45
2023/01/20 03:40:10;;;;;;;3.80;2.40;;;-3.10;99.90;;;;;;5050692;28;20466;-46
2023/01/20 03:42:44;;;;;;;2.30;2.10;;;-3.10;99.90;;;;;;5049858;28;20494;-45
2023/01/20 03:45:17;;;;;;;2.83;2.10;;;-3.40;99.90;;;;;;5049671;28;20508;-46
2023/01/20 03:47:54;;;;;;;2.90;2.67;;;-3.30;99.90;;;;;;5054180;28;20529;-46
2023/01/20 03:50:34;;;;;;;4.77;2.30;;;-3.20;99.90;;;;;;5053951;28;20515;-45
2023/01/20 03:53:10;;;;;;;2.47;2.13;;;-3.30;99.90;;;;;;5053507;28;20480;-45
2023/01/20 03:55:41;;;;;;;2.63;2.20;;;-3.20;99.90;;;;;;5053258;28;20494;-46
2023/01/20 03:58:11;;;;;;;3.73;2.80;;;-2.90;99.90;;;;;;5054326;28;20487;-47
2023/01/20 04:00:41;;;;;;;3.00;2.50;;;-2.90;99.90;;;;;;5051437;28;20535;-46
2023/01/20 04:03:15;;;;;;;3.33;2.40;;;-2.90;99.90;;;;;;5052109;28;20962;-46
2023/01/20 04:05:56;;;;;;;3.13;2.67;;;-2.90;99.90;;;;;;5079746;22;20545;-82
2023/01/20 04:08:36;;;;;;;2.27;1.90;;;-2.80;99.90;;;;;;5054844;28;20444;-82
2023/01/20 04:11:15;;;;;;;2.83;2.50;;;-2.80;99.90;;;;;;5055052;28;20477;-82
2023/01/20 04:13:49;;;;;;;3.27;2.27;;;-2.70;99.90;;;;;;5054801;28;20449;-82
2023/01/20 04:18:47;;;;;;;3.03;2.37;;;-2.60;99.90;;;;;;5090918;28;20448;-48
2023/01/20 04:21:21;;;;;;;2.90;1.90;;;-2.60;99.90;;;;;;5093002;28;20526;-48
2023/01/20 04:23:55;;;;;;;4.27;2.60;;;-2.60;99.90;;;;;;5091207;28;20948;-48
2023/01/20 04:26:22;;;;;;;4.10;2.40;;;-2.60;99.90;;;;;;5071899;28;20470;-48
2023/01/20 04:28:49;;;;;;;2.57;1.73;;;-2.50;99.90;;;;;;5071946;28;20472;-48
2023/01/20 04:31:17;;;;;;;3.00;2.10;;;-2.50;99.90;;;;;;5071935;28;20522;-48
2023/01/20 04:33:44;;;;;;;2.27;1.93;;;-2.60;99.90;;;;;;5070859;28;20479;-48
2023/01/20 04:36:11;;;;;;;2.80;2.37;;;-2.60;99.90;;;;;;5071423;28;20482;-48
2023/01/20 04:38:39;;;;;;;3.47;2.50;;;-2.60;99.90;;;;;;5073375;28;20532;-48
2023/01/20 04:41:06;;;;;;;2.70;2.20;;;-2.60;99.90;;;;;;5072740;28;20524;-48
2023/01/20 04:43:33;;;;;;;7.93;2.87;;;-2.60;99.90;;;;;;5072459;28;20476;-48
2023/01/20 04:46:00;;;;;;;6.00;2.73;;;-2.50;99.90;;;;;;5073078;28;20495;-48
2023/01/20 04:48:27;;;;;;;4.40;3.10;;;-2.60;99.90;;;;;;5073083;28;20529;-48
2023/01/20 04:50:54;;;;;;;3.60;2.47;;;-2.60;99.90;;;;;;5072636;28;20477;-48
2023/01/20 04:53:20;;;;;;;3.20;2.07;;;-2.60;99.90;;;;;;5071987;28;20528;-48
2023/01/20 04:55:49;;;;;;;2.53;2.27;;;-2.70;99.90;;;;;;5072983;28;20543;-48
2023/01/20 04:58:16;;;;;;;1.80;1.60;;;-2.60;99.90;;;;;;5072887;28;20449;-48
2023/01/20 05:00:42;;;;;;;3.20;2.23;;;-2.50;99.90;;;;;;5071378;28;20513;-48
2023/01/20 05:03:09;;;;;;;2.73;2.47;;;-2.50;99.90;;;;;;5061304;28;20481;-48
2023/01/20 05:05:36;;;;;;;2.50;2.30;;;-2.60;99.90;;;;;;5072613;28;20499;-48
2023/01/20 05:08:04;;;;;;;4.90;2.90;;;-2.60;99.90;;;;;;5072568;28;20517;-48
2023/01/20 05:10:31;;;;;;;3.33;2.27;;;-2.50;99.90;;;;;;5071749;28;20474;-48
2023/01/20 05:13:00;;;;;;;3.13;2.23;;;-2.40;99.90;;;;;;5070578;28;20441;-48
2023/01/20 05:15:28;;;;;;;3.43;2.30;;;-2.50;99.90;;;;;;5071087;28;20492;-48
2023/01/20 05:17:55;;;;;;;3.80;2.23;;;-2.60;99.90;;;;;;5070821;28;20484;-48
2023/01/20 05:20:21;;;;;;;3.40;2.10;;;-2.90;99.90;;;;;;5071020;28;20460;-48
2023/01/20 05:22:48;;;;;;;2.17;1.97;;;-3.00;99.90;;;;;;5070963;28;20473;-47
2023/01/20 05:25:15;;;;;;;3.73;2.13;;;-2.90;99.90;;;;;;5071539;28;20492;-48
2023/01/20 05:27:43;;;;;;;4.83;2.10;;;-2.70;99.90;;;;;;5072540;28;20528;-48
2023/01/20 05:30:13;;;;;;;2.80;2.20;;;-2.70;99.90;;;;;;5073115;28;20474;-48
2023/01/20 05:32:40;;;;;;;3.00;2.67;;;-2.60;99.90;;;;;;5068083;28;20484;-47
2023/01/20 05:35:08;;;;;;;3.80;2.43;;;-2.60;99.90;;;;;;5071314;28;20543;-48
2023/01/20 05:37:36;;;;;;;6.20;4.40;;;-2.50;99.90;;;;;;5066999;28;20543;-49
2023/01/20 05:40:03;;;;;;;4.00;3.70;;;-2.50;99.90;;;;;;5072246;28;20461;-48
2023/01/20 05:42:32;;;;;;;3.40;3.10;;;-2.50;99.90;;;;;;5071386;28;20445;-48
2023/01/20 05:44:59;;;;;;;2.70;2.50;;;-2.50;99.90;;;;;;5071385;28;20493;-47
2023/01/20 05:47:27;;;;;;;4.53;3.47;;;-2.50;99.90;;;;;;5071753;28;20892;-48
2023/01/20 05:49:54;;;;;;;2.40;2.20;;;-2.60;99.90;;;;;;5072355;28;20567;-48
2023/01/20 05:52:21;;;;;;;3.50;2.40;;;-2.80;99.90;;;;;;5065123;28;20525;-48
2023/01/20 05:54:48;;;;;;;2.40;2.20;;;-2.90;99.90;;;;;;5069723;28;20551;-48
2023/01/20 05:57:17;;;;;;;3.43;2.57;;;-3.10;99.90;;;;;;5070287;28;20532;-48
2023/01/20 05:59:44;;;;;;;2.90;2.20;;;-3.00;99.90;;;;;;5070935;28;20473;-47
2023/01/20 06:02:12;;;;;;;4.90;3.13;;;-3.00;99.90;;;;;;5063786;28;20812;-48
2023/01/20 06:04:40;;;;;;;4.03;2.53;;;-3.10;99.90;;;;;;5062123;28;20810;-48
2023/01/20 06:07:07;;;;;;;3.80;2.83;;;-3.10;99.90;;;;;;5063092;28;20507;-48
2023/01/20 06:09:34;;;;;;;7.90;4.90;;;-3.00;99.90;;;;;;5061553;28;20512;-48
2023/01/20 06:12:01;;;;;;;8.50;3.03;;;-2.90;99.90;;;;;;5066586;28;20539;-48
2023/01/20 06:14:27;;;;;;;4.43;3.10;;;-2.80;99.90;;;;;;5064253;28;20487;-48
2023/01/20 06:16:54;;;;;;;3.93;3.53;;;-2.70;99.90;;;;;;5063007;28;20545;-48
2023/01/20 06:19:21;;;;;;;4.37;2.90;;;-2.60;99.90;;;;;;5068725;28;20480;-48
2023/01/20 06:21:49;;;;;;;4.60;3.80;;;-2.70;99.90;;;;;;5067027;28;20879;-48
2023/01/20 06:24:16;;;;;;;3.90;3.50;;;-2.90;99.90;;;;;;5059436;28;21014;-48
2023/01/20 06:26:43;;;;;;;4.53;3.80;;;-3.00;99.90;;;;;;5060837;28;20468;-48
2023/01/20 06:29:10;;;;;;;4.03;3.20;;;-3.00;99.90;;;;;;5061804;28;20955;-48
2023/01/20 06:31:37;;;;;;;3.73;3.20;;;-3.10;99.90;;;;;;5053660;28;20566;-48
2023/01/20 06:34:04;;;;;;;4.50;3.63;;;-3.10;99.90;;;;;;5049378;28;20544;-48
2023/01/20 06:36:31;;;;;;;3.80;3.40;;;-3.30;99.90;;;;;;5050391;28;20533;-48
2023/01/20 06:38:59;;;;;;;6.50;3.37;;;-3.30;99.90;;;;;;5050962;28;20524;-48
2023/01/20 06:41:26;;;;;;;5.10;3.20;;;-3.30;99.90;;;;;;5049778;28;21061;-48
2023/01/20 06:43:53;;;;;;;6.07;3.20;;;-3.30;99.90;;;;;;5048665;28;20475;-48
2023/01/20 06:46:21;;;;;;;3.53;3.20;;;-3.30;99.90;;;;;;5049795;28;20552;-48
2023/01/20 06:48:48;;;;;;;5.60;3.53;;;-3.30;99.90;;;;;;5050023;28;20475;-48
2023/01/20 06:51:16;;;;;;;8.27;4.13;;;-3.30;99.90;;;;;;5049914;28;20570;-48
2023/01/20 06:53:43;;;;;;;4.63;3.53;;;-3.20;99.90;;;;;;5049396;28;20543;-48
2023/01/20 06:56:13;;;;;;;3.47;3.17;;;-3.20;99.90;;;;;;5050459;28;20542;-48
2023/01/20 06:58:40;;;;;;;6.27;5.30;;;-3.30;99.90;;;;;;5050482;28;20538;-48
2023/01/20 07:01:09;;;;;;;6.90;4.70;;;-3.30;99.90;;;;;;5048992;28;20481;-48
2023/01/20 07:03:37;;;;;;;6.40;3.63;;;-3.40;99.90;;;;;;5050414;28;20525;-48
2023/01/20 07:06:07;;;;;;;4.47;3.60;;;-3.50;99.90;;;;;;5051023;28;20528;-49
2023/01/20 07:08:34;;;;;;;4.87;4.30;;;-3.30;99.90;;;;;;5050889;28;20481;-48
2023/01/20 07:11:01;;;;;;;4.80;4.23;;;-3.50;99.90;;;;;;5050225;28;20518;-47
2023/01/20 07:13:29;;;;;;;4.20;3.80;;;-3.50;99.90;;;;;;5048996;28;20469;-48
2023/01/20 07:15:56;;;;;;;4.27;3.77;;;-3.30;99.90;;;;;;5049342;28;20985;-48
2023/01/20 07:18:23;;;;;;;6.30;3.40;;;-3.10;99.90;;;;;;5050340;28;20555;-48
2023/01/20 07:20:53;;;;;;;5.20;4.37;;;-3.10;99.90;;;;;;5051131;28;20469;-48
2023/01/20 07:23:20;;;;;;;4.83;4.37;;;-3.10;99.90;;;;;;5054279;28;20451;-48
2023/01/20 07:25:47;;;;;;;7.90;4.60;;;-3.00;99.90;;;;;;5054507;28;21030;-48
2023/01/20 07:28:15;;;;;;;6.50;5.33;;;-3.00;99.90;;;;;;5055498;28;20449;-48
2023/01/20 07:30:43;;;;;;;4.20;3.80;;;-2.90;99.90;;;;;;5054471;28;20476;-48
2023/01/20 07:33:10;;;;;;;5.27;4.77;;;-2.90;99.90;;;;;;5054284;28;20547;-48
2023/01/20 07:35:36;;;;;;;4.20;3.80;;;-2.90;99.90;;;;;;5054898;28;20547;-48
2023/01/20 07:38:04;;;;;;;7.93;4.80;;;-2.80;99.90;;;;;;5053962;28;20523;-48
2023/01/20 07:40:31;;;;;;;4.80;4.00;;;-2.70;99.90;;;;;;5054639;28;20947;-48
2023/01/20 07:42:57;;;;;;;4.60;4.07;;;-2.70;99.90;;;;;;5054016;28;20888;-48
2023/01/20 07:45:39;;;;;;;7.93;5.27;;;-2.70;99.90;;;;;;5020848;28;20532;-48
2023/01/20 07:48:08;;;;;;;5.30;4.30;;;-2.60;99.90;;;;;;5054685;28;20544;-48
2023/01/20 07:50:35;;;;;;;9.70;4.73;;;-2.40;99.90;;;;;;5054676;28;21018;-48
2023/01/20 07:53:02;;;;;;;5.47;4.00;;;-2.30;99.90;;;;;;5054152;28;20524;-48
2023/01/20 07:55:29;;;;;;;5.27;4.30;;;-2.30;99.90;;;;;;5054799;28;21069;-48
2023/01/20 07:57:56;;;;;;;6.63;4.30;;;-2.30;99.90;;;;;;5054732;28;20477;-48
2023/01/20 08:00:23;;;;;;;7.97;5.33;;;-2.40;99.90;;;;;;5053515;28;21178;-48
2023/01/20 08:02:50;;;;;;;7.23;4.73;;;-2.60;99.90;;;;;;5054744;28;20485;-48
2023/01/20 08:05:18;;;;;;;8.10;5.70;;;-2.80;99.90;;;;;;5054185;28;21056;-48
2023/01/20 08:07:49;;;;;;;6.67;5.77;;;-3.00;99.90;;;;;;5054339;28;20449;-49
2023/01/20 08:10:17;;;;;;;6.53;5.20;;;-3.10;99.90;;;;;;5054250;28;20476;-48
2023/01/20 08:12:43;;;;;;;8.37;5.77;;;-3.00;99.90;;;;;;5052723;28;20507;-48
2023/01/20 08:15:11;;;;;;;6.37;5.57;;;-3.00;99.90;;;;;;5052635;28;20540;-47
2023/01/20 08:17:38;;;;;;;8.43;5.77;;;-2.90;99.90;;;;;;5053855;28;20541;-48
2023/01/20 08:20:06;;;;;;;10.50;6.77;;;-2.80;99.90;;;;;;5053713;28;20524;-48
2023/01/20 08:22:35;;;;;;;6.40;5.60;;;-2.80;99.90;;;;;;5053732;28;20947;-48
2023/01/20 08:25:02;;;;;;;11.10;6.80;;;-2.80;99.90;;;;;;5053016;28;20548;-48
2023/01/20 08:27:29;;;;;;;10.97;8.27;;;-2.90;99.90;;;;;;5053891;28;20500;-48
2023/01/20 08:29:56;;;;;;;8.30;6.17;;;-3.10;99.90;;;;;;5053332;28;20534;-48
2023/01/20 08:32:23;;;;;;;8.73;6.20;;;-3.20;99.90;;;;;;5053462;28;20564;-48
2023/01/20 08:34:50;;;;;;;6.83;5.40;;;-3.20;99.90;;;;;;5053056;28;20552;-48
2023/01/20 08:37:17;;;;;;;8.73;5.90;;;-3.10;99.90;;;;;;5053862;28;20545;-48
2023/01/20 08:39:45;;;;;;;7.17;6.10;;;-3.10;99.90;;;;;;5053213;28;20524;-48
2023/01/20 08:42:12;;;;;;;6.73;4.80;;;-2.90;99.90;;;;;;5053593;28;20524;-49
2023/01/20 08:44:39;;;;;;;8.43;4.73;;;-3.00;99.90;;;;;;5053408;28;20572;-48
2023/01/20 08:47:06;;;;;;;5.30;4.80;;;-3.10;99.90;;;;;;5053996;28;20526;-48
2023/01/20 08:49:33;;;;;;;5.33;4.70;;;-3.00;99.90;;;;;;5053448;28;20969;-48
2023/01/20 08:52:00;;;;;;;9.00;5.00;;;-2.90;99.90;;;;;;5053221;28;20860;-48
2023/01/20 08:54:28;;;;;;;6.13;4.60;;;-3.10;99.90;;;;;;5052377;28;20559;-48
2023/01/20 08:56:56;;;;;;;5.80;5.20;;;-3.00;99.90;;;;;;5053430;28;20447;-48
2023/01/20 08:59:23;;;;;;;8.40;5.50;;;-3.10;99.90;;;;;;5053571;28;20859;-48
2023/01/20 09:01:50;;;;;;;6.57;5.20;;;-3.00;99.90;;;;;;5052170;28;20870;-48
2023/01/20 09:04:17;;;;;;;9.10;6.23;;;-2.80;99.90;;;;;;5052800;28;20880;-48
2023/01/20 09:06:48;;;;;;;9.33;5.30;;;-2.40;99.90;;;;;;5053534;28;20533;-48
2023/01/20 09:09:17;;;;;;;8.53;5.53;;;-2.30;99.90;;;;;;5053201;28;20524;-48
2023/01/20 09:11:49;;;;;;;9.27;5.90;;;-2.30;99.90;;;;;;5051916;28;20512;-48
2023/01/20 09:14:17;;;;;;;8.50;5.43;;;-2.30;99.90;;;;;;5052305;28;20476;-47
2023/01/20 09:16:44;;;;;;;6.63;4.60;;;-2.40;99.90;;;;;;5052844;28;20869;-47
2023/01/20 09:19:11;;;;;;;7.70;6.07;;;-2.30;99.90;;;;;;5045987;28;20534;-48
2023/01/20 09:21:38;;;;;;;6.13;5.23;;;-2.20;99.90;;;;;;5052765;28;20524;-48
2023/01/20 09:24:06;;;;;;;6.43;5.73;;;-2.10;99.90;;;;;;5052020;28;20552;-48
2023/01/20 09:26:37;;;;;;;6.93;5.70;;;-2.00;99.90;;;;;;5052661;28;20467;-48
2023/01/20 09:29:07;;;;;;;6.07;5.47;;;-2.00;99.90;;;;;;5052720;28;20942;-48
2023/01/20 09:31:36;;;;;;;7.57;5.33;;;-2.00;99.90;;;;;;5050758;28;20858;-48
2023/01/20 09:34:03;;;;;;;8.60;6.20;;;-2.10;99.90;;;;;;5051915;28;20541;-47
2023/01/20 09:36:30;;;;;;;5.40;4.40;;;-2.10;99.90;;;;;;5052531;28;21054;-47
2023/01/20 09:44:50;;;;;;;6.60;5.90;;;-2.10;99.90;;;;;;5051134;28;20437;-48
2023/01/20 09:47:27;;;;;;;5.70;4.37;;;-2.00;99.90;;;;;;5052378;28;20465;-48
2023/01/20 09:53:15;;;;;;;5.80;3.90;;;-2.20;99.90;;;;;;5051710;28;20485;-47
2023/01/20 09:55:48;;;;;;;5.07;3.80;;;-2.20;99.90;;;;;;5052197;28;20990;-48
2023/01/20 09:58:24;;;;;;;6.77;4.93;;;-2.00;99.90;;;;;;5052178;28;20431;-48
2023/01/20 10:00:58;;;;;;;10.77;7.40;;;-1.80;99.90;;;;;;5050915;28;20479;-48
2023/01/20 10:03:35;;;;;;;9.73;7.27;;;-1.60;99.90;;;;;;5051734;28;20529;-48
2023/01/20 10:06:10;;;;;;;7.70;6.10;;;-1.60;99.90;;;;;;5051991;28;20465;-48
2023/01/20 10:08:45;;;;;;;11.30;5.87;;;-1.70;99.90;;;;;;5051886;28;20473;-48
2023/01/20 10:11:16;;;;;;;9.10;6.03;;;-1.70;99.90;;;;;;5051688;28;21005;-48
2023/01/20 10:13:50;;;;;;;7.93;6.03;;;-1.70;99.90;;;;;;5051535;28;20540;-47
2023/01/20 10:16:25;;;;;;;8.33;6.03;;;-1.70;99.90;;;;;;5051604;28;20445;-47
2023/01/20 10:19:00;;;;;;;6.97;6.10;;;-1.80;99.90;;;;;;5106520;23;20593;-48
2023/01/20 10:21:34;;;;;;;20.00;13.43;;;-1.50;99.90;;;;;;5052044;28;20856;-48
2023/01/20 10:24:06;;;;;;;9.33;5.17;;;-1.50;99.90;;;;;;5051019;28;20534;-49
2023/01/20 10:26:42;;;;;;;10.83;6.07;;;-1.70;99.90;;;;;;5051832;28;20528;-49
2023/01/20 10:29:13;;;;;;;8.63;7.10;;;-1.60;99.90;;;;;;5051342;28;20460;-50
2023/01/20 10:31:46;;;;;;;8.77;7.37;;;-1.40;99.90;;;;;;5049618;28;20517;-49
2023/01/20 10:34:19;;;;;;;11.77;7.80;;;-1.50;99.90;;;;;;5050980;28;20580;-48
2023/01/20 10:36:54;;;;;;;4.33;3.93;;;-1.60;99.90;;;;;;5051749;28;20477;-48
2023/01/20 10:39:28;;;;;;;4.73;3.57;;;-1.70;99.90;;;;;;5050908;28;20444;-49
2023/01/20 10:42:01;;;;;;;4.57;3.57;;;-1.60;99.90;;;;;;5051570;28;20976;-47
2023/01/20 10:44:28;;;;;;;5.17;3.57;;;-1.40;99.90;;;;;;5050729;28;20479;-46
2023/01/20 10:47:14;;;;;;;3.27;2.97;;;-1.10;99.90;;;;;;5051356;28;20446;-47
2023/01/20 10:50:01;;;;;;;4.77;3.93;;;-1.00;99.90;;;;;;5051361;28;20475;-46
2023/01/20 10:52:44;;;;;;;3.83;3.23;;;-0.80;99.90;;;;;;5051611;28;20565;-47
2023/01/20 10:55:20;;;;;;;4.00;3.60;;;-0.70;99.90;;;;;;5050697;28;20478;-47
2023/01/20 10:57:53;;;;;;;4.63;4.10;;;-0.80;99.90;;;;;;5050982;28;21030;-48
2023/01/20 11:00:24;;;;;;;5.60;4.27;;;-1.10;99.90;;;;;;5049653;28;20544;-46
2023/01/20 11:02:52;;;;;;;5.57;3.90;;;-1.30;99.90;;;;;;5051029;28;20471;-47
2023/01/20 11:05:24;;;;;;;9.10;5.00;;;-1.30;99.90;;;;;;5051053;28;20496;-47
2023/01/20 11:07:53;;;;;;;6.07;4.80;;;-1.30;99.90;;;;;;5050170;28;20512;-48
2023/01/20 11:10:23;;;;;;;5.40;4.87;;;-1.30;99.90;;;;;;5040826;28;20478;-47
2023/01/20 11:12:53;;;;;;;6.83;4.87;;;-1.40;99.90;;;;;;5047346;28;20483;-47
2023/01/20 11:15:22;;;;;;;6.53;4.60;;;-1.30;99.90;;;;;;5050226;28;20898;-46
2023/01/20 11:18:20;;;;;;;3.97;3.37;;;-1.20;99.90;;;;;;5049997;28;20485;-46
2023/01/20 11:20:51;;;;;;;3.93;3.63;;;-1.20;99.90;;;;;;5048267;28;20468;-46
2023/01/20 11:23:32;;;;;;;5.23;4.20;;;-1.10;99.90;;;;;;5050553;28;20466;-46
2023/01/20 11:26:01;;;;;;;4.70;4.30;;;-0.90;99.90;;;;;;5050786;28;20521;-47
2023/01/20 11:28:36;;;;;;;5.50;4.30;;;-0.80;99.90;;;;;;5050793;28;21193;-46
2023/01/20 11:31:05;;;;;;;5.60;4.73;;;-0.70;99.90;;;;;;5049147;28;20464;-46
2023/01/20 11:33:32;;;;;;;6.10;4.37;;;-0.50;99.90;;;;;;5048828;28;20465;-47
2023/01/20 11:36:02;;;;;;;5.07;4.03;;;-0.40;99.90;;;;;;5048907;28;20525;-50
2023/01/20 11:38:30;;;;;;;4.80;3.87;;;-0.50;99.90;;;;;;5049513;28;20552;-47
2023/01/20 11:40:58;;;;;;;4.60;3.83;;;-0.80;99.90;;;;;;5050735;28;20525;-47
2023/01/20 11:43:30;;;;;;;4.10;2.83;;;-0.90;99.90;;;;;;5049907;28;20530;-50
2023/01/20 11:46:21;;;;;;;3.07;2.80;;;-1.00;99.90;;;;;;5049845;28;20528;-48
2023/01/20 11:48:48;;;;;;;6.20;3.73;;;-0.90;99.90;;;;;;5049975;28;20458;-48
2023/01/20 11:51:25;;;;;;;6.20;3.90;;;-0.90;99.90;;;;;;5049381;28;20529;-48
2023/01/20 11:54:07;;;;;;;6.00;3.47;;;-0.80;99.90;;;;;;5049629;28;20965;-47
2023/01/20 11:56:40;;;;;;;3.63;3.10;;;-0.90;99.90;;;;;;5049287;28;20503;-46
2023/01/20 11:59:19;;;;;;;5.90;3.57;;;-0.80;99.90;;;;;;5048852;28;20502;-47
2023/01/20 12:02:00;;;;;;;5.03;3.43;;;-0.90;99.90;;;;;;5050319;28;20521;-47
2023/01/20 12:04:59;;;;;;;3.83;2.80;;;-0.70;99.90;;;;;;5042984;28;20471;-46
2023/01/20 12:07:30;;;;;;;4.23;3.27;;;-0.80;99.90;;;;;;5031297;28;20466;-46
2023/01/20 12:10:03;;;;;;;4.97;2.70;;;-0.70;99.90;;;;;;5032665;28;20481;-47
2023/01/20 12:12:37;;;;;;;4.73;3.10;;;-0.70;99.90;;;;;;5034491;28;20517;-46
2023/01/20 12:15:10;;;;;;;3.50;2.70;;;-0.70;99.90;;;;;;5032975;28;20533;-46
2023/01/20 12:17:44;;;;;;;3.10;2.70;;;-0.80;99.90;;;;;;5033570;28;20552;-47
2023/01/20 12:20:19;;;;;;;3.60;3.23;;;-0.80;99.90;;;;;;5033464;28;20962;-45
2023/01/20 12:23:01;;;;;;;4.00;3.20;;;-0.70;99.90;;;;;;5033917;28;20969;-46
2023/01/20 12:25:30;;;;;;;3.07;2.77;;;-0.70;99.90;;;;;;5033513;28;21034;-48
2023/01/20 12:28:01;;;;;;;4.20;3.70;;;-0.70;99.90;;;;;;5032581;28;20458;-47
2023/01/20 12:30:47;;;;;;;4.50;4.10;;;-0.80;99.90;;;;;;5032335;28;20481;-46
2023/01/20 12:33:21;;;;;;;4.43;3.80;;;-0.70;99.90;;;;;;5032834;28;20521;-47
2023/01/20 12:36:16;;;;;;;8.30;3.77;;;-0.70;99.90;;;;;;5033460;28;20962;-46
2023/01/20 12:39:01;;;;;;;7.10;4.53;;;-0.70;99.90;;;;;;5033323;28;20541;-46
2023/01/20 12:41:44;;;;;;;7.03;5.07;;;-0.60;99.90;;;;;;5033685;28;20524;-46
2023/01/20 12:44:16;;;;;;;3.87;2.77;;;-0.50;99.90;;;;;;5032618;28;20471;-49
2023/01/20 12:46:49;;;;;;;4.10;3.73;;;-0.60;99.90;;;;;;5044339;28;20527;-47
2023/01/20 12:49:36;;;;;;;3.93;3.63;;;-0.70;99.90;;;;;;5053117;28;20545;-47
2023/01/20 12:52:19;;;;;;;3.30;3.00;;;-0.80;99.90;;;;;;5053434;28;20469;-48
2023/01/20 12:55:09;;;;;;;6.07;4.20;;;-0.90;99.90;;;;;;5052375;28;20890;-46
2023/01/20 12:57:54;;;;;;;3.60;3.03;;;-1.00;99.90;;;;;;5052489;28;20500;-49
2023/01/20 13:00:39;;;;;;;3.30;3.00;;;-0.90;99.90;;;;;;5053287;28;20890;-45
2023/01/20 13:03:39;;;;;;;5.03;4.53;;;-0.80;99.90;;;;;;5051610;28;20572;-46
2023/01/20 13:06:37;;;;;;;5.70;4.97;;;-0.60;99.90;;;;;;5051537;28;20537;-47
2023/01/20 13:09:17;;;;;;;8.50;5.70;;;-0.50;99.90;;;;;;5051113;28;20859;-47
2023/01/20 13:12:00;;;;;;;18.20;8.47;;;-0.50;99.90;;;;;;5050724;28;20524;-47
2023/01/20 13:14:39;;;;;;;11.80;5.53;;;-0.70;99.90;;;;;;5051350;28;20481;-46
2023/01/20 13:17:14;;;;;;;6.90;4.30;;;-0.70;99.90;;;;;;5052282;28;20440;-46